If you wish to contribute or participate in the discussions about articles you are invited to join SKYbrary as a registered user

 Actions

Cape Town International Airport

From SKYbrary Wiki

FACT
Airport
ICAO: FACT – IATA: CPT
Summary
Name Cape Town International Airport
Region Africa
Territory South Africa ZA.gif
Location , Western Cape
Serving Cape Town
Elevation 46.025 m
151 ft
151 ft46.025 m
Coordinates 33° 57' 53.30" S, 18° 36' 6.00" E
Runways
Designator Length Width Surface ROPS
1/19 3201 m10,501.969 ft
61 m200.131 ft
ASP yes/yes
16/34 1701 m5,580.709 ft
46 m150.919 ft
ASP yes/yes


METAR
Observation FACT 172100Z 21008KT CAVOK 15/11 Q1019 NOSIG
Station Cape Town, Cape Town International Airport
Date/Time 17 April 2019 21:00:00
Wind direction 210°
Wind speed 08 kts
Lowest cloud amount clouds and visibility OK
Temperature 15°C
Dew point 11°C
Humidity 77%
QNH 1019 hPa
Weather condition n/a